arxmliv
arxmliv build tool
 
KWARC group
LaTeXML
About
   
 

Detailed info

Back to Homepage

List of missing_macros

No. Date Filename num_warningnum_errornum_xmargok_xmargnum_xmathok_xmathMissing macros
95401 2013-03-12 17:44:56 /0804/0804.0013 230000[\mathds].
95402 2013-03-12 17:44:41 /0804/0804.0015 090000[\Line, \SetColor, \DashArrowLine, \Black, \ArrowLine, \Vertex, \Text, \SetWidth, \COval].
95403 2013-03-12 17:44:23 /0803/0803.4500 11150000[\tprod, \young, \Yvcentermath, {proof}, \tsum].
95404 2013-03-12 17:44:22 /0804/0804.0004 540000[\theappendix].
95405 2013-03-12 17:44:01 /0803/0803.4509 510000[\institute]; 1 missing file[svjourarXiv.cls].
95406 2013-03-12 17:43:59 /0803/0803.4507 1350000[\titlerunning, \institute, \authorrunning, \publonline, \received].
95407 2013-03-12 17:43:58 /0803/0803.4494 2740000[Align, \xymatrix, \ar]; 1 missing file[xy.sty].
95408 2013-03-12 17:42:25 /0803/0803.4476 3380000[Align, \midrule, \addlinespace, \xymatrix, \toprule, \bottomrule, \ar]; 1 missing file[xy.sty].
95409 2013-03-12 17:41:56 /0803/0803.4451 9170000[\smaller].
95410 2013-03-12 17:41:37 /0803/0803.4439 1710000[\dottedline].
95411 2013-03-12 17:41:35 /0803/0803.4459 220000[\prd]; 1 missing file[aas_macros.sty].
95412 2013-03-12 17:41:17 /0803/0803.4463 430000[{theacknowledgments}, \layoutstyle, \classification].
95413 2013-03-12 17:41:16 /0803/0803.4470 710000[\citeauthoryear].
95414 2013-03-12 17:41:06 /0803/0803.4446 166530000[\natu, \Hilkg, \lat, \Hilk, \ub, \ubHilkg, \hol, \fidq, \expect, \sgn, \hCgrav, \Heff, \whexp, \re, \Hilkf, \init, \rd, \compl, \BesI, \qhol, \Ar, \fidveps, \Cgrav, \Hilkge, \BesK, \sket, \dip, \sip, \ubHilp, \arcosh, \fV, {obs}, \rBohr, \id, \const, \fi
95415 2013-03-12 17:41:00 /0803/0803.4436 4140000[\Abstract, \ArticleName, \URLaddressD, \EmailD, \ShortArticleName, \FirstPageHeading, \Address, \pdfbookmark, \LastPageEnding, \Classification, \ArticleDates, \Author, \AuthorNameForHeading, \Keywords].
95416 2013-03-12 17:40:56 /0803/0803.4442 5650000[Align, \xymatrix, \hole, \ar]; 1 missing file[xy.sty].
95417 2013-03-12 17:40:45 /0803/0803.4444 920000[\uuline, \normalem].
95418 2013-03-12 17:40:30 /0803/0803.4445 110000[\psfrag].
95419 2013-03-12 17:40:27 /0803/0803.4410 6640000[Align, \xymatrix, \ar]; 1 missing file[xy.sty].
95420 2013-03-12 17:40:22 /0803/0803.4440 580000[{acknowledgments}, \affil, \citep, {article}, \authoraddr, \authorrunninghead, \citet, \titlerunninghead]; 1 missing file[agu2001.cls].
95421 2013-03-12 17:40:19 /0803/0803.4418 1220000[\theappendix]; 1 missing file[mdwlist.sty].
95422 2013-03-12 17:40:09 /0803/0803.4429 1190000[\affil, \citep, \runningtitle, \bottomhline, \middlehline, \iftwocol, {acknowledgements}, \tophline, \unit, \correspondence, \printfigures, \includegraphics, \runningauthor, \citet, \conclusions, \introduction]; 1 missing file[egu.cls].
95423 2013-03-12 17:40:09 /0803/0803.4447 1320000[\PACS]; 1 missing file[size11.clo.sty].
95424 2013-03-12 17:39:38 /0803/0803.4382 5440000[Align, \xymatrix, \ar]; 1 missing file[xy.sty].
95425 2013-03-12 17:39:16 /0803/0803.4323 20520000[\smaller].
95426 2013-03-12 17:38:57 /0803/0803.4374 2460000[Align, \xyoption, \xymatrix, \ar, \CompileMatrices]; 1 missing file[xy.sty].
95427 2013-03-12 17:38:49 /0803/0803.4402 11120000[\save, \cir, \xymatrix, \xy, \frm, \POS, \endxy, Align, \restore, \dir, \ar]; 1 missing file[xy.sty].
95428 2013-03-12 17:38:46 /0803/0803.4399 1570000[Align, \xyoption, \xymatrix, \ar].
95429 2013-03-12 17:38:37 /0803/0803.4373 3510000[\theappendix].
95430 2013-03-12 17:37:59 /0803/0803.4358 6370000[\kword, \abst, \Braket, \inst, \Ket, \Bra, \citen].
95431 2013-03-12 17:37:56 /0803/0803.4403 990000[Align, {numcases}].
95432 2013-03-12 17:37:48 /0803/0803.4377 3010000[\psfrag].
95433 2013-03-12 17:37:23 /0803/0803.4389 15190000[Align, \xymatrix, \ar]; 1 missing file[xy.sty].
95434 2013-03-12 17:37:14 /0803/0803.4376 120000[\TCItag, \dint].
95435 2013-03-12 17:37:00 /0803/0803.4360 030000[\extrasenglish, \dateenglish, \captionsenglish].
95436 2013-03-12 17:36:54 /0803/0803.4375 11440000[\ccode, \eqref, \catchline, \tbl, \refcite, \pub, \keywords, \includegraphics, \colrule, Align, \botrule, \toprule, {align}]; 1 missing file[ws.sty].
95437 2013-03-12 17:36:44 /0803/0803.4361 030000[\extrasenglish, \dateenglish, \captionsenglish].
95438 2013-03-12 17:36:39 /0803/0803.4365 1110000[\theappendix].
95439 2013-03-12 17:36:34 /0803/0803.4342 1850000[Align, \xymatrixcolsep, \xymatrix, \ar]; 1 missing file[xy.sty].
95440 2013-03-12 17:36:27 /0803/0803.4364 510000[\tsum].
95441 2013-03-12 17:36:07 /0803/0803.4349 91920000[{prooftree}, \using, \xymatrix, \newdir, Align, {boxedminipage}, \SelectTips, \justifies, \ar]; 2 missing files[xy.sty, boxedminipage.sty].
95442 2013-03-12 17:35:56 /0803/0803.4343 020000[\@end@institute]; 1 missing file[type1cm.sty].
95443 2013-03-12 17:35:55 /0803/0803.4330 8150000[\Vertex, \Line, \Text, \CBoxc, \BBoxc].
95444 2013-03-12 17:35:48 /0803/0803.4341 2140000[\apj, \citep, \apjl, \aap, \altaffilmark, \apjs, Align, \mnras, \altaffiltext, \citet, \araa, \farcs, \acknowledgements]; 1 missing file[asp2006.sty].
95445 2013-03-12 17:35:13 /0803/0803.4345 3160000[\affil, \session, \apj, \aj, \citep, \shortauthor, \aap, \mnras, \apjs, \shorttitle, \arcsec, \citet, \acknowledgements]; 1 missing file[xrb2007.sty].
95446 2013-03-12 17:34:52 /0803/0803.4331 2120000[\Abstract, \ArticleName, {theorem}, \ShortArticleName, \FirstPageHeading, \Address, \LastPageEnding, \Classification, \ArticleDates, \Author, \AuthorNameForHeading, \Keywords].
95447 2013-03-12 17:34:50 /0803/0803.4329 5330000[Align, \xymatrix, \ar].
95448 2013-03-12 17:34:25 /0803/0803.4315 5710000[\varmathbb].
95449 2013-03-12 17:34:25 /0803/0803.4324 1180000[\affil, \apj, \citep, \ga, \aap, \citealt, \mnras, \pasp, \plotone, \citet, \acknowledgements, \plottwo]; 1 missing file[asp2006.sty].
95450 2013-03-12 17:33:38 /0803/0803.4296 3710000[\smaller].
95451 2013-03-12 17:33:36 /0803/0803.4290 510000[\appendixpage].
95452 2013-03-12 17:33:33 /0803/0803.4318 130000[\eqref, \layoutstyle, \classification].
95453 2013-03-12 17:33:26 /0803/0803.4308 980000[\setmargrb, \If, \Return, \ForEach, \color, \setpapersize, \KwSty]; 1 missing file[pgf.sty].
95454 2013-03-12 17:32:47 /0803/0803.4257 21910000[\yng].
95455 2013-03-12 17:32:29 /0803/0803.4294 420000[\PACS]; 1 missing file[size11.clo.sty].
95456 2013-03-12 17:32:28 /0803/0803.4299 010000[\psfrag].
95457 2013-03-12 17:32:26 /0803/0803.4262 1240000[\theappendix, Align]; 2 missing files[capt-of.sty, captcont.sty].
95458 2013-03-12 17:32:10 /0803/0803.4274 020000[\layoutstyle, \classification].
95459 2013-03-12 17:32:09 /0803/0803.4277 770000[\pacs, \inst, \shorttitle, \shortauthor, \institute, \etal, \acknowledgments]; 1 missing file[epl2.cls].
95460 2013-03-12 17:31:23 /0803/0803.4252 850000[Align, \ar@, \xymatrix, \ar]; 1 missing file[xy.sty].
95461 2013-03-12 17:31:12 /0803/0803.4243 1940000[Align, \xymatrix, \ar]; 1 missing file[xy.sty].
95462 2013-03-12 17:31:06 /0803/0803.4260 1010000[\theappendix].
95463 2013-03-12 17:30:57 /0803/0803.4222 7830000[\prettyref, \geometry]; 1 missing file[esint.sty].
95464 2013-03-12 17:30:50 /0803/0803.4256 010000[\meter].
95465 2013-03-12 17:30:46 /0803/0803.4203 1420000[\theappendix]; 1 missing file[apjfonts.sty].
95466 2013-03-12 17:30:46 /0803/0803.4231 1420000[\mathds]; 1 missing file[xy.sty].
95467 2013-03-12 17:30:24 /0803/0803.4227 620000[\geometry]; 1 missing file[esint.sty].
95468 2013-03-12 17:29:49 /0803/0803.4210 1870000[Align, \allsectionsfont, \sectionfont, \xymatrix, \ar]; 2 missing files[sectsty.sty, xy.sty].
95469 2013-03-12 17:29:28 /0803/0803.4211 180000[\theappendix, \apjs, \mnras, \physrep, \apj, \apjl, \aap]; 1 missing file[aas_macros.sty].
95470 2013-03-12 17:29:26 /0803/0803.4160 7850000[Align, \xyoption, \xymatrix, \ar]; 1 missing file[xy.sty].
95471 2013-03-12 17:29:22 /0803/0803.4225 420000[\theappendix].
95472 2013-03-12 17:29:20 /0803/0803.4223 020000[\ack, \ead].
95473 2013-03-12 17:29:18 /0803/0803.4216 12430000[\midrule, \toprule, \bottomrule].
95474 2013-03-12 17:28:56 /0803/0803.4201 82150000[\Abstract, {lemma}, \ArticleName, {theorem}, \ShortArticleName, \FirstPageHeading, \Address, \pdfbookmark, \LastPageEnding, \Classification, \ArticleDates, \Author, \Email, \AuthorNameForHeading, \Keywords].
95475 2013-03-12 17:28:42 /0803/0803.4195 13130000[\frqq, \subref, \flqq].
95476 2013-03-12 17:28:18 /0803/0803.4121 154240000[\endxy, \fancyplain, \xybox, \dir, \SelectTips, \xy, \ar]; 1 missing file[xy.sty].
95477 2013-03-12 17:26:57 /0803/0803.4179 16120000[{comment}, {enumerate*}]; 2 missing files[scrtime.sty, mdwlist.sty].
95478 2013-03-12 17:26:36 /0803/0803.4176 230000[{theacknowledgments}, \layoutstyle, \classification].
95479 2013-03-12 17:26:19 /0803/0803.4168 15240000[{lemma}, {theorem}, \pdfbookmark, \LastPageEnding, \Classification, \ArticleDates, {example}, {remark}, \AuthorNameForHeading, {proposition}, \Abstract, \ArticleName, \ShortArticleName, \FirstPageHeading, \Address, \Author, {definition}, \Email, \Keyword
95480 2013-03-12 17:26:12 /0803/0803.4166 370000[\theappendix, \harvardurl, \harvarditem, \citeasnoun, \harvardand].
95481 2013-03-12 17:26:04 /0803/0803.4136 43670000[{xy}, \titlehead, \theoremstyle, \subject, \theoremsymbol, \xymatrix, \typearea, \minisec, Align, \thechapter, \theorembodyfont, \@currentID, \addtokomafont, \publishers, \ar, \theoremclass]; 1 missing file[scrreprt.cls].
95482 2013-03-12 17:26:04 /0803/0803.4170 220000[\setkeys]; 1 missing file[pgf.sty].
95483 2013-03-12 17:25:37 /0803/0803.4140 7110000[\Book, \pacs, \institute, \onefigure, \acknowledgments, \Publ, \boldsymbol, \Name, \Year, \REVIEW]; 1 missing file[epl2.cls].
95484 2013-03-12 17:25:26 /0803/0803.4159 280000[\firstsection, \editors, \affiliation, \jname, \pagerange, \keywords, \volume, \pubyear]; 1 missing file[iaus.cls].
95485 2013-03-12 17:25:20 /0803/0803.4143 0100000[\inst, \accepted, \institute, \publonline, \email, \fnmsep, \titlerunning, \acknowledgements, \authorrunning, \received].
95486 2013-03-12 17:25:17 /0803/0803.4132 6810000[\arXivid].
95487 2013-03-12 17:24:36 /0803/0803.4106 294260000[\ex@].
95488 2013-03-12 17:24:19 /0803/0803.4138 710000[\nar].
95489 2013-03-12 17:24:17 /0803/0803.4126 32650000[\goth].
95490 2013-03-12 17:23:47 /0803/0803.4110 8550000[\ArrowArc, \Text, \Gluon, \DashArrowLine]; 1 missing file[axocolor.sty].
95491 2013-03-12 17:23:31 /0803/0803.4097 2170000[\rotate, \tablecolumns, \tabletypesize, {deluxetable}, \tablecomments, \startdata, \enddata, \colhead, \nodata, \tablenotetext, \tablehead, \tablewidth, Align, \sidehead, \tablecaption, \tablenotemark]; 1 missing file[deluxetable.sty].
95492 2013-03-12 17:23:20 /0803/0803.4089 129610000[\hlineon, \legend, {keywords}, \doi, \jvol, \setstyle, \setdepth, \jyear, \setwidth, \sethspace, \botrule, \setxname, \toprule, \setstretch, \received, \tabnote, \issn, \setnumberpos, \tbl, \setyaxis, \colrule, {barenv}, \jnum, \issnp]; 2 missing files[b
95493 2013-03-12 17:22:40 /0803/0803.4119 020000[\njlab, \nuk].
95494 2013-03-12 17:22:27 /0803/0803.4082 2940000[Align, \xymatrix, \ar]; 1 missing file[xy.sty].
95495 2013-03-12 17:21:43 /0803/0803.4044 3710000[{comment}].
95496 2013-03-12 17:21:37 /0803/0803.4078 010000[Align].
95497 2013-03-12 17:21:22 /0803/0803.4068 830000[\midrule, \toprule, \bottomrule].
95498 2013-03-12 17:21:17 /0803/0803.4072 2410000[\mathinner].
95499 2013-03-12 17:21:08 /0803/0803.4071 1820000[Align]; 1 missing file[colordvi.sty].
95500 2013-03-12 17:20:59 /0803/0803.4076 5130000[\ccode, \catchline, \gtrsim, \lesssim, \psfig, \pub, \keywords]; 1 missing file[ws.sty].
95501 2013-03-12 17:20:49 /0803/0803.4070 120000[\PACS]; 1 missing file[size11.clo.sty].
95502 2013-03-12 17:20:38 /0803/0803.4077 1140000[\affil, \citeyear, \apj, \aj, \citep, \pasj, \apjl, \aap, \nat, \pasp, \citeauthor, \citet, \acknowledgements]; 1 missing file[asp2006.sty].
95503 2013-03-12 17:20:31 /0803/0803.4063 580000[\pagemark, \unit, \setcaptionwidth, \midrule, \toprule, \ohead, \clearscrheadfoot, \bottomrule]; 1 missing file[scrartcl.cls].
95504 2013-03-12 17:20:20 /0803/0803.4061 330000[\layoutstyle, \classification]; 1 missing file[{aipcheck}].
95505 2013-03-12 17:20:12 /0803/0803.4034 710000[\Supset].
95506 2013-03-12 17:19:59 /0803/0803.4053 210000[\psfrag].
95507 2013-03-12 17:19:39 /0803/0803.4021 3600000[\rlvec, \Quot, {lemma}, {theorem}, \lfill, \C, \Gl, {example}, \lvec, \K, \linewd, \Z, \mathbbm, {remark}, \lpatt, \arrowheadtype, \ar, \CompileMatrices, \drawdim, \Q, \setgray, {texdraw}, \xymatrix, \R, \relunitscale, {definition}, \fcir, \htext, {corol
95508 2013-03-12 17:19:32 /0803/0803.4039 090000[\catchline, \keywords]; 1 missing file[ws.sty].
95509 2013-03-12 17:19:30 /0803/0803.4040 120000[\psfrag, \psfragscanon].
95510 2013-03-12 17:19:04 /0803/0803.3984 25910000[\psfrag].
95511 2013-03-12 17:19:02 /0803/0803.4024 030000[\affil, \acknowledgements]; 1 missing file[asp2006.sty].
95512 2013-03-12 17:18:30 /0803/0803.3973 5220000[\psfrag]; 1 missing file[graphpap.sty].
95513 2013-03-12 17:18:24 /0803/0803.3987 220000[\theappendix, \longtabL].
95514 2013-03-12 17:17:59 /0803/0803.4005 030000[\ArrowLine, \Photon, \SetColor].
95515 2013-03-12 17:17:28 /0803/0803.3964 7640000[\ArrowLine, \Photon, \Gluon, \DashArrowLine].
95516 2013-03-12 17:17:14 /0803/0803.3979 710000[\theappendix].
95517 2013-03-12 17:17:01 /0803/0803.3970 4410000[\mathds].
95518 2013-03-12 17:16:55 /0803/0803.3977 4110000[\editors, \affiliation, \discuss, \keywords, \volume, \firstsection, {discussion}, \pagerange, \jname, \pubyear, {acknowledgements}]; 1 missing file[iaus.cls].
95519 2013-03-12 17:16:37 /0803/0803.3931 34260000[Align, \the\the\displayedcounter, \xymatrix, \ar]; 1 missing file[xy.sty].
95520 2013-03-12 17:16:18 /0803/0803.3946 2420000[\Q, \erert].
95521 2013-03-12 17:16:17 /0803/0803.3952 020000[{sidewaystable}].
95522 2013-03-12 17:16:09 /0803/0803.3958 110000[\Supset].
95523 2013-03-12 17:15:58 /0803/0803.3913 3420000[\@end@institute]; 1 missing file[soul.sty].
95524 2013-03-12 17:15:44 /0803/0803.3951 010000[\captionsfrancais].
95525 2013-03-12 17:15:30 /0803/0803.3909 710000[\theappendix].
95526 2013-03-12 17:15:16 /0803/0803.3929 130000[{theacknowledgments}, \layoutstyle, \classification].
95527 2013-03-12 17:15:04 /0803/0803.3907 3140000[Align, \xymatrix, \ar]; 1 missing file[xy.sty].
95528 2013-03-12 17:14:14 /0803/0803.3865 4010000[\dbigoplus].
95529 2013-03-12 17:14:00 /0803/0803.3878 33210000[\xspace, \ifzbstpl, \makezeustitle, {sideways}, \psfig, \epsfig, \ifzbstnp, \ifzbstepj, \prepnum, \ifzdrftbst, \draftversion, \ifzeusbst, \Text, \SetWidth, \SetScale, \text]; 1 missing file[zeus_paper.cls].
95530 2013-03-12 17:13:58 /0803/0803.3852 3710000[\mathds].
95531 2013-03-12 17:13:54 /0803/0803.3897 1100000[\apj, \aaps, \aap, \altaffilmark, \mnras, \apjs, \arcsec, \altaffiltext, \acknowledgements]; 1 missing file[asp2006.sty].
95532 2013-03-12 17:13:52 /0803/0803.3889 910000[\apprle].
95533 2013-03-12 17:13:38 /0803/0803.3850 4120000[{keywords}, {proof}]; 1 missing file[IEEEtran.cls].
95534 2013-03-12 17:13:27 /0803/0803.3880 2220000[{IEEEkeywords}, \psfrag]; 1 missing file[IEEEtran.cls].
95535 2013-03-12 17:13:27 /0803/0803.3888 070000[\includegraphics, \address, \pacs, \rotatebox, \resizebox, \onlinecite, \keywords].
95536 2013-03-12 17:13:17 /0803/0803.3871 140000[\extrasenglish, \geometry, \dateenglish, \captionsenglish].
95537 2013-03-12 17:13:11 /0803/0803.3866 9170000[{theorem}, \pdfbookmark, \LastPageEnding, \Classification, \ArticleDates, {example}, \AuthorNameForHeading, \URLaddress, \Abstract, \ArticleName, \ShortArticleName, \FirstPageHeading, \Address, \Author, {definition}, \Email, \Keywords].
95538 2013-03-12 17:12:56 /0803/0803.3841 210000[\fatslash].
95539 2013-03-12 17:12:49 /0803/0803.3868 1040000[{@proof}, \linenumbers].
95540 2013-03-12 17:12:08 /0803/0803.3854 020000[\layoutstyle, \classification].
95541 2013-03-12 17:12:07 /0803/0803.3840 210000[\parpic].
95542 2013-03-12 17:11:57 /0803/0803.3844 230000[\pub, \keywords]; 1 missing file[ws.sty].
95543 2013-03-12 17:11:41 /0803/0803.3825 18490000[\midrule, \ruDotsto, \rTo, Align, \uTo, \diagramstyle, \toprule, \bottomrule, {diagram}].
95544 2013-03-12 17:11:25 /0803/0803.3839 610000[\theappendix].
95545 2013-03-12 17:11:21 /0803/0803.3820 4610000[\psfrag].
95546 2013-03-12 17:11:09 /0803/0803.3798 6390000[\xymatrix, \newdir, \xy, \POS, \endxy, Align, \SelectTips, \ar]; 1 missing file[xy.sty].
95547 2013-03-12 17:11:01 /0803/0803.3750 30880000[\SetLabels, \title, \AffixLabels, \date, \and, \endSetLabels, \author]; 1 missing file[labelfig.tex].
95548 2013-03-12 17:10:58 /0803/0803.3838 010000[\normalem].
95549 2013-03-12 17:10:46 /0803/0803.3812 3560000[{keywords}, \email, \accepted, \revised, \submitted, {proof}]; 1 missing file[tlp.cls].
95550 2013-03-12 17:10:44 /0803/0803.3796 30230000[\titlecomment, \lsuper, \qEd, \rrbracket, {exa}, \UseComputerModernTips, \address, \rsuper, \email, \subjclass, {thm}, \llbracket, \ar, {defi}, {prop}, \lmcsheading, \xymatrix, \qed, \keywords, Align, {proof}, \bigsqcap]; 2 missing files[xy.sty, LMCS.cls
95551 2013-03-12 17:10:31 /0803/0803.3807 2010000[\theappendix].
95552 2013-03-12 17:10:27 /0803/0803.3816 30100000[\authorblockN, {algorithm}, \State, \authorblockA, \IEEEpeerreviewmaketitle, {algorithmic}]; 2 missing files[picinpar.sty, IEEEtran.cls].
95553 2013-03-12 17:10:08 /0803/0803.3813 2190000[\apj, \endpage, \aaps, \runningtitle, \aap, \acknowledgments, \volume, \address, \epsfbox, \pasp, \epsfxsize, \aj, \offprints, \keywords, \apjs, \mnras, \beginpage, \runningauthor]; 1 missing file[jkas.sty].
95554 2013-03-12 17:09:56 /0803/0803.3768 5810000[\dottedline].
95555 2013-03-12 17:09:11 /0803/0803.3777 1540000[\sloppy, \IEEEauthorblockA, \IEEEauthorblockN, {proof}]; 1 missing file[IEEEtran.cls].
95556 2013-03-12 17:09:07 /0803/0803.3792 110000[\normalem].
95557 2013-03-12 17:09:03 /0803/0803.3766 30730000[\dLine, \rInto, \hLine, \rTo, \rdTo, \lBiject, \dTo, {comment}, \rBiject, \afterpage, \lInto, \newarrow, Align, \uTo, \ldTo, {diagram}]; 2 missing files[afterpage.sty, xy.sty].
95558 2013-03-12 17:08:31 /0803/0803.3730 11960000[Align, \xymatrix, \ar]; 1 missing file[xy.sty].
95559 2013-03-12 17:08:29 /0803/0803.3773 6880000[\authorblockN, \mathds, \authorrefmark, \authorblockA, \endproof, {proof}]; 1 missing file[IEEEtran.cls].
95560 2013-03-12 17:08:02 /0803/0803.3702 40440000[Align, \xymatrix, \ar]; 1 missing file[xy.sty].
95561 2013-03-12 17:07:32 /0803/0803.3775 020000[\jcap, \na].
95562 2013-03-12 17:07:21 /0803/0803.3759 250000[{sidewaystable}, \address]; 1 missing file[osajnl2.sty].
95563 2013-03-12 17:06:30 /0803/0803.3732 3440000[\extrarowheight, \node, \arrow, {diagram}].
95564 2013-03-12 17:06:30 /0803/0803.3749 47100000[\editors, \affiliation, \keywords, \volume, \firstsection, \gtrsim, \pagerange, \jname, \pubyear, \etal]; 1 missing file[iaus.cls].
95565 2013-03-12 17:06:27 /0803/0803.3734 1460000[\citeyear, \harvardyearleft, \harvarditem, \citeasnoun, \harvardand, \harvardyearright].
95566 2013-03-12 17:06:24 /0803/0803.3751 3100000[\lesssim, \editors, \affiliation, \keywords, \volume, \firstsection, \pagerange, \jname, \etal, \pubyear]; 1 missing file[iaus.cls].
95567 2013-03-12 17:05:41 /0803/0803.3742 140000[{IEEEkeywords}, \IEEEspecialpapernotice, \IEEEPARstart, \IEEEmembership]; 1 missing file[IEEEtran.cls].
95568 2013-03-12 17:05:06 /0803/0803.3713 310000[\meter].
95569 2013-03-12 17:05:03 /0803/0803.3719 410000[\theappendix].
95570 2013-03-12 17:04:55 /0803/0803.3714 030000[\extrasenglish, \dateenglish, \captionsenglish].
95571 2013-03-12 17:04:50 /0803/0803.3717 030000[\extrasenglish, \dateenglish, \captionsenglish].
95572 2013-03-12 17:04:48 /0803/0803.3706 830000[\xmapsto]; 2 missing files[mathtools.sty, xy.sty].
95573 2013-03-12 17:04:31 /0803/0803.3668 30120000[Align, \xymatrixcolsep, \xymatrix, \ar, \xymatrixrowsep]; 1 missing file[xy.sty].
95574 2013-03-12 17:03:50 /0803/0803.3681 260000[\email, \titlerunning, \offprints, \institute, \authorrunning, {acknowledgements}]; 1 missing file[ab.cls].
95575 2013-03-12 17:03:39 /0803/0803.3689 1130000[\rMapsto, \newarrow, \rTo].
95576 2013-03-12 17:03:34 /0803/0803.3659 5710000[\utilde].
95577 2013-03-12 17:03:15 /0803/0803.3675 1740000[\mathds, \address, \email, \keywords].
95578 2013-03-12 17:03:07 /0803/0803.3674 1060000[\email, \titlerunning, \offprints, \institute, \authorrunning, {acknowledgements}]; 1 missing file[ab.cls].
95579 2013-03-12 17:03:00 /0803/0803.3630 57260000[{lemma}, {theorem}, \inst, \Month, \diagram, \DOIsuffix, {example}, \subjclass, \diagramstyle, {remark}, \Year, {proposition}, {defn}, {cor}, {prop}, \Reviseddate, \Receiveddate, \Volume, \keywords, \endCD, \pagespan, {corollary}, {rem}, \dedicatory, \Da
95580 2013-03-12 17:02:47 /0803/0803.3679 720000[\lbag, \rbag].
95581 2013-03-12 17:02:46 /0803/0803.3594 61600000[\opbEoFboG, \opEoF, {xy}, \N, \PraEnd, \opG, \iso, \NColl, \NOp, \LaxAlg, \CAT, \opA, \opH, \comp, \ev, \End, \Graph, \catequiv, \xymatrix, \ladj, \POS, Align, \tensor, \restore, \el, \B, \opGoH, \opE, \opAA, \G, \xy, \C, \xygraph, \endxy, \opIoF, \opF,
95582 2013-03-12 17:02:19 /0803/0803.3669 1740000[\UseAllTwocells, Align, \xymatrix, \ar].
95583 2013-03-12 17:02:10 /0803/0803.3651 13710000[{comment}].
95584 2013-03-12 17:02:01 /0803/0803.3667 920000[\subfloat]; 1 missing file[xy.sty].
95585 2013-03-12 17:01:48 /0803/0803.3648 3810000[\theappendix].
95586 2013-03-12 17:01:24 /0803/0803.3656 14100000[\editors, \affiliation, \discuss, \keywords, \volume, \firstsection, {discussion}, \pagerange, \jname, \pubyear]; 1 missing file[iaus.cls].
95587 2013-03-12 17:01:23 /0803/0803.3641 5070000[\catchline, {history}, \psfig, \revised, \keywords, \received]; 1 missing file[ws.sty].
95588 2013-03-12 17:00:36 /0803/0803.3633 630000[\extrasenglish, \dateenglish, \captionsenglish].
95589 2013-03-12 17:00:08 /0803/0803.3610 3110000[\underset].
95590 2013-03-12 17:00:01 /0803/0803.3572 1140000[Align, \xymatrix, \ar]; 1 missing file[xy.sty].
95591 2013-03-12 16:59:56 /0803/0803.3608 340000[Align, \xymatrix, \ar]; 1 missing file[xy.sty].
95592 2013-03-12 16:59:39 /0803/0803.3615 230000[{acknowledgments}, {keywords}, {summary}]; 1 missing file[gji2.cls].
95593 2013-03-12 16:59:14 /0803/0803.3598 020000[\dsum, \dprod].
95594 2013-03-12 16:59:13 /0803/0803.3590 6230000[\psfrag].
95595 2013-03-12 16:59:10 /0803/0803.3600 2510000[\dprod].
95596 2013-03-12 16:58:59 /0803/0803.3602 410000[\theappendix].
95597 2013-03-12 16:58:58 /0803/0803.3601 1060000[Align, \xyoption, \xymatrix, \rTo, \ar]; 1 missing file[xy.sty].
95598 2013-03-12 16:58:52 /0803/0803.3585 230000[\balance]; 2 missing files[afterpage.sty, balance.sty].
95599 2013-03-12 16:58:45 /0803/0803.3561 950000[\cmidrule, \unit, \midrule, \toprule, \bottomrule].
95600 2013-03-12 16:57:35 /0803/0803.3552 430000[\psfrag].
<<< >>>

[0] [200] [400] [600] [800] [1000] [1200] [1400] [1600] [1800] [2000] [2200] [2400] [2600] [2800] [3000] [3200] [3400] [3600] [3800] [4000] [4200] [4400] [4600] [4800] [5000] [5200] [5400] [5600] [5800] [6000] [6200] [6400] [6600] [6800] [7000] [7200] [7400] [7600] [7800] [8000] [8200] [8400] [8600] [8800] [9000] [9200] [9400] [9600] [9800] [10000] [10200] [10400] [10600] [10800] [11000] [11200] [11400] [11600] [11800] [12000] [12200] [12400] [12600] [12800] [13000] [13200] [13400] [13600] [13800] [14000] [14200] [14400] [14600] [14800] [15000] [15200] [15400] [15600] [15800] [16000] [16200] [16400] [16600] [16800] [17000] [17200] [17400] [17600] [17800] [18000] [18200] [18400] [18600] [18800] [19000] [19200] [19400] [19600] [19800] [20000] [20200] [20400] [20600] [20800] [21000] [21200] [21400] [21600] [21800] [22000] [22200] [22400] [22600] [22800] [23000] [23200] [23400] [23600] [23800] [24000] [24200] [24400] [24600] [24800] [25000] [25200] [25400] [25600] [25800] [26000] [26200] [26400] [26600] [26800] [27000] [27200] [27400] [27600] [27800] [28000] [28200] [28400] [28600] [28800] [29000] [29200] [29400] [29600] [29800] [30000] [30200] [30400] [30600] [30800] [31000] [31200] [31400] [31600] [31800] [32000] [32200] [32400] [32600] [32800] [33000] [33200] [33400] [33600] [33800] [34000] [34200] [34400] [34600] [34800] [35000] [35200] [35400] [35600] [35800] [36000] [36200] [36400] [36600] [36800] [37000] [37200] [37400] [37600] [37800] [38000] [38200] [38400] [38600] [38800] [39000] [39200] [39400] [39600] [39800] [40000] [40200] [40400] [40600] [40800] [41000] [41200] [41400] [41600] [41800] [42000] [42200] [42400] [42600] [42800] [43000] [43200] [43400] [43600] [43800] [44000] [44200] [44400] [44600] [44800] [45000] [45200] [45400] [45600] [45800] [46000] [46200] [46400] [46600] [46800] [47000] [47200] [47400] [47600] [47800] [48000] [48200] [48400] [48600] [48800] [49000] [49200] [49400] [49600] [49800] [50000] [50200] [50400] [50600] [50800] [51000] [51200] [51400] [51600] [51800] [52000] [52200] [52400] [52600] [52800] [53000] [53200] [53400] [53600] [53800] [54000] [54200] [54400] [54600] [54800] [55000] [55200] [55400] [55600] [55800] [56000] [56200] [56400] [56600] [56800] [57000] [57200] [57400] [57600] [57800] [58000] [58200] [58400] [58600] [58800] [59000] [59200] [59400] [59600] [59800] [60000] [60200] [60400] [60600] [60800] [61000] [61200] [61400] [61600] [61800] [62000] [62200] [62400] [62600] [62800] [63000] [63200] [63400] [63600] [63800] [64000] [64200] [64400] [64600] [64800] [65000] [65200] [65400] [65600] [65800] [66000] [66200] [66400] [66600] [66800] [67000] [67200] [67400] [67600] [67800] [68000] [68200] [68400] [68600] [68800] [69000] [69200] [69400] [69600] [69800] [70000] [70200] [70400] [70600] [70800] [71000] [71200] [71400] [71600] [71800] [72000] [72200] [72400] [72600] [72800] [73000] [73200] [73400] [73600] [73800] [74000] [74200] [74400] [74600] [74800] [75000] [75200] [75400] [75600] [75800] [76000] [76200] [76400] [76600] [76800] [77000] [77200] [77400] [77600] [77800] [78000] [78200] [78400] [78600] [78800] [79000] [79200] [79400] [79600] [79800] [80000] [80200] [80400] [80600] [80800] [81000] [81200] [81400] [81600] [81800] [82000] [82200] [82400] [82600] [82800] [83000] [83200] [83400] [83600] [83800] [84000] [84200] [84400] [84600] [84800] [85000] [85200] [85400] [85600] [85800] [86000] [86200] [86400] [86600] [86800] [87000] [87200] [87400] [87600] [87800] [88000] [88200] [88400] [88600] [88800] [89000] [89200] [89400] [89600] [89800] [90000] [90200] [90400] [90600] [90800] [91000] [91200] [91400] [91600] [91800] [92000] [92200] [92400] [92600] [92800] [93000] [93200] [93400] [93600] [93800] [94000] [94200] [94400] [94600] [94800] [95000] [95200] [95400] [95600] [95800] [96000] [96200] [96400] [96600] [96800] [97000] [97200] [97400] [97600] [97800] [98000] [98200] [98400] [98600] [98800] [99000] [99200] [99400] [99600] [99800] [100000] [100200] [100400] [100600] [100800] [101000] [101200] [101400] [101600] [101800] [102000] [102200] [102400] [102600] [102800] [103000] [103200] [103400] [103600] [103800] [104000] [104200] [104400] [104600] [104800] [105000] [105200] [105400] [105600] [105800] [106000] [106200] [106400] [106600] [106800] [107000] [107200] [107400] [107600] [107800] [108000] [108200] [108400] [108600] [108800] [109000] [109200] [109400] [109600] [109800] [110000] [110200] [110400] [110600] [110800] [111000] [111200] [111400] [111600] [111800] [112000] [112200] [112400] [112600] [112800] [113000] [113200] [113400] [113600] [113800] [114000] [114200] [114400] [114600] [114800] [115000] [115200] [115400] [115600] [115800] [116000] [116200] [116400] [116600] [116800] [117000] [117200] [117400] [117600] [117800] [118000] [118200] [118400] [118600] [118800] [119000] [119200] [119400] [119600] [119800] [120000] [120200] [120400] [120600] [120800] [121000] [121200] [121400] [121600] [121800] [122000] [122200] [122400] [122600] [122800] [123000] [123200] [123400] [123600] [123800] [124000] [124200] [124400] [124600] [124800] [125000] [125200] [125400] [125600] [125800] [126000] [126200] [126400] [126600] [126800] [127000] [127200] [127400] [127600] [127800] [128000] [128200] [128400] [128600] [128800] [129000] [129200] [129400] [129600] [129800] [130000] [130200] [130400] [130600] [130800] [131000] [131200] [131400] [131600] [131800] [132000] [132200] [132400] [132600] [132800] [133000] [133200] [133400] [133600] [133800] [134000] [134200] [134400] [134600] [134800] [135000] [135200] [135400] [135600] [135800] [136000] [136200] [136400] [136600] [136800] [137000] [137200] [137400] [137600] [137800] [138000] [138200] [138400] [138600] [138800] [139000] [139200] [139400] [139600] [139800] [140000] [140200] [140400] [140600] [140800] [141000] [141200] [141400] [141600] [141800] [142000] [142200] [142400] [142600] [142800] [143000] [143200] [143400] [143600] [143800] [144000] [144200] [144400] [144600] [144800] [145000] [145200] [145400] [145600] [145800] [146000] [146200] [146400] [146600] [146800] [147000] [147200] [147400] [147600] [147800] [148000] [148200] [148400] [148600] [148800] [149000] [149200] [149400] [149600] [149800] [150000] [150200] [150400] [150600] [150800] [151000] [151200] [151400] [151600] [151800] [152000] [152200] [152400] [152600] [152800] [153000] [153200] [153400] [153600] [153800] [154000] [154200] [154400] [154600] [154800] [155000] [155200] [155400] [155600] [155800] [156000] [156200] [156400] [156600] [156800] [157000] [157200] [157400] [157600] [157800] [158000] [158200] [158400] [158600] [158800] [159000] [159200] [159400] [159600] [159800] [160000] [160200] [160400] [160600] [160800] [161000] [161200] [161400] [161600] [161800] [162000] [162200] [162400] [162600] [162800] [163000] [163200] [163400] [163600] [163800] [164000] [164200] [164400] [164600]
 
  The service has been written by
Heinrich Stamerjohanns